sensor_id;sensor_type;location;lat;lon;timestamp;P1;durP1;ratioP1;P2;durP2;ratioP2
27863;SDS011;15980;51.092;13.916;2022-12-18T00:04:14;42.78;;;14.85;;
27863;SDS011;15980;51.092;13.916;2022-12-18T00:09:22;49.70;;;14.77;;
27863;SDS011;15980;51.092;13.916;2022-12-18T00:14:30;46.83;;;14.82;;
27863;SDS011;15980;51.092;13.916;2022-12-18T00:19:35;47.22;;;15.15;;
27863;SDS011;15980;51.092;13.916;2022-12-18T00:24:40;42.03;;;13.38;;
27863;SDS011;15980;51.092;13.916;2022-12-18T00:29:47;60.30;;;16.73;;
27863;SDS011;15980;51.092;13.916;2022-12-18T00:34:52;53.40;;;15.38;;
27863;SDS011;15980;51.092;13.916;2022-12-18T00:39:57;53.35;;;15.27;;
27863;SDS011;15980;51.092;13.916;2022-12-18T00:45:05;54.65;;;15.00;;
27863;SDS011;15980;51.092;13.916;2022-12-18T00:50:12;50.28;;;14.63;;
27863;SDS011;15980;51.092;13.916;2022-12-18T00:55:17;48.70;;;12.90;;
27863;SDS011;15980;51.092;13.916;2022-12-18T01:00:26;52.85;;;15.52;;
27863;SDS011;15980;51.092;13.916;2022-12-18T01:05:30;54.28;;;15.88;;
27863;SDS011;15980;51.092;13.916;2022-12-18T01:10:35;56.75;;;16.05;;
27863;SDS011;15980;51.092;13.916;2022-12-18T01:15:47;56.28;;;15.48;;
27863;SDS011;15980;51.092;13.916;2022-12-18T01:20:52;51.25;;;17.40;;
27863;SDS011;15980;51.092;13.916;2022-12-18T01:25:57;56.28;;;16.83;;
27863;SDS011;15980;51.092;13.916;2022-12-18T01:31:16;54.97;;;16.40;;
27863;SDS011;15980;51.092;13.916;2022-12-18T01:36:23;50.70;;;16.67;;
27863;SDS011;15980;51.092;13.916;2022-12-18T01:41:30;53.83;;;15.02;;
27863;SDS011;15980;51.092;13.916;2022-12-18T01:46:51;41.25;;;13.45;;
27863;SDS011;15980;51.092;13.916;2022-12-18T01:51:56;41.90;;;13.15;;
27863;SDS011;15980;51.092;13.916;2022-12-18T01:57:01;52.80;;;15.73;;
27863;SDS011;15980;51.092;13.916;2022-12-18T02:02:08;38.17;;;13.27;;
27863;SDS011;15980;51.092;13.916;2022-12-18T02:07:17;45.60;;;14.27;;
27863;SDS011;15980;51.092;13.916;2022-12-18T02:12:30;42.95;;;14.48;;
27863;SDS011;15980;51.092;13.916;2022-12-18T02:17:47;36.78;;;12.50;;
27863;SDS011;15980;51.092;13.916;2022-12-18T02:23:03;32.85;;;11.70;;
27863;SDS011;15980;51.092;13.916;2022-12-18T02:28:19;47.55;;;15.82;;
27863;SDS011;15980;51.092;13.916;2022-12-18T02:33:27;45.33;;;14.95;;
27863;SDS011;15980;51.092;13.916;2022-12-18T02:38:33;42.85;;;13.38;;
27863;SDS011;15980;51.092;13.916;2022-12-18T02:43:43;44.67;;;13.93;;
27863;SDS011;15980;51.092;13.916;2022-12-18T02:48:51;36.42;;;12.75;;
27863;SDS011;15980;51.092;13.916;2022-12-18T02:54:01;54.20;;;16.08;;
27863;SDS011;15980;51.092;13.916;2022-12-18T02:59:17;47.40;;;14.27;;
27863;SDS011;15980;51.092;13.916;2022-12-18T03:04:28;44.33;;;14.07;;
27863;SDS011;15980;51.092;13.916;2022-12-18T03:09:39;47.67;;;13.80;;
27863;SDS011;15980;51.092;13.916;2022-12-18T03:14:50;41.75;;;12.88;;
27863;SDS011;15980;51.092;13.916;2022-12-18T03:20:02;39.33;;;12.00;;
27863;SDS011;15980;51.092;13.916;2022-12-18T03:25:11;35.70;;;11.63;;
27863;SDS011;15980;51.092;13.916;2022-12-18T03:30:21;41.58;;;13.98;;
27863;SDS011;15980;51.092;13.916;2022-12-18T03:35:26;47.33;;;15.27;;
27863;SDS011;15980;51.092;13.916;2022-12-18T03:40:38;44.15;;;12.95;;
27863;SDS011;15980;51.092;13.916;2022-12-18T03:45:52;46.42;;;13.18;;
27863;SDS011;15980;51.092;13.916;2022-12-18T03:51:05;38.05;;;11.77;;
27863;SDS011;15980;51.092;13.916;2022-12-18T03:56:14;29.98;;;10.73;;
27863;SDS011;15980;51.092;13.916;2022-12-18T04:01:25;35.45;;;13.55;;
27863;SDS011;15980;51.092;13.916;2022-12-18T04:06:35;48.22;;;13.75;;
27863;SDS011;15980;51.092;13.916;2022-12-18T04:11:41;37.28;;;12.25;;
27863;SDS011;15980;51.092;13.916;2022-12-18T04:16:49;45.00;;;12.43;;
27863;SDS011;15980;51.092;13.916;2022-12-18T04:21:54;34.92;;;11.50;;
27863;SDS011;15980;51.092;13.916;2022-12-18T04:26:59;32.47;;;11.18;;
27863;SDS011;15980;51.092;13.916;2022-12-18T04:32:07;39.30;;;11.43;;
27863;SDS011;15980;51.092;13.916;2022-12-18T04:37:12;34.15;;;11.80;;
27863;SDS011;15980;51.092;13.916;2022-12-18T04:42:17;34.50;;;10.70;;
27863;SDS011;15980;51.092;13.916;2022-12-18T04:47:25;32.53;;;11.07;;
27863;SDS011;15980;51.092;13.916;2022-12-18T04:52:30;29.70;;;10.27;;
27863;SDS011;15980;51.092;13.916;2022-12-18T04:57:34;36.88;;;12.25;;
27863;SDS011;15980;51.092;13.916;2022-12-18T05:02:42;32.30;;;10.40;;
27863;SDS011;15980;51.092;13.916;2022-12-18T05:07:47;37.28;;;11.90;;
27863;SDS011;15980;51.092;13.916;2022-12-18T05:12:52;38.38;;;11.15;;
27863;SDS011;15980;51.092;13.916;2022-12-18T05:18:05;41.38;;;13.05;;
27863;SDS011;15980;51.092;13.916;2022-12-18T05:23:10;36.42;;;11.15;;
27863;SDS011;15980;51.092;13.916;2022-12-18T05:28:15;35.30;;;12.70;;
27863;SDS011;15980;51.092;13.916;2022-12-18T05:33:23;40.15;;;11.77;;
27863;SDS011;15980;51.092;13.916;2022-12-18T05:38:30;35.15;;;11.68;;
27863;SDS011;15980;51.092;13.916;2022-12-18T05:43:37;36.55;;;12.35;;
27863;SDS011;15980;51.092;13.916;2022-12-18T05:48:46;33.72;;;10.82;;
27863;SDS011;15980;51.092;13.916;2022-12-18T05:53:52;38.85;;;13.75;;
27863;SDS011;15980;51.092;13.916;2022-12-18T05:58:56;44.30;;;14.20;;
27863;SDS011;15980;51.092;13.916;2022-12-18T06:04:04;35.35;;;10.75;;
27863;SDS011;15980;51.092;13.916;2022-12-18T06:09:09;33.40;;;10.70;;
27863;SDS011;15980;51.092;13.916;2022-12-18T06:14:14;37.60;;;11.20;;
27863;SDS011;15980;51.092;13.916;2022-12-18T06:19:21;39.25;;;12.50;;
27863;SDS011;15980;51.092;13.916;2022-12-18T06:24:26;46.33;;;13.30;;
27863;SDS011;15980;51.092;13.916;2022-12-18T06:29:31;49.45;;;13.95;;
27863;SDS011;15980;51.092;13.916;2022-12-18T06:34:39;35.35;;;13.02;;
27863;SDS011;15980;51.092;13.916;2022-12-18T06:39:44;59.10;;;16.73;;
27863;SDS011;15980;51.092;13.916;2022-12-18T06:44:49;41.55;;;13.40;;
27863;SDS011;15980;51.092;13.916;2022-12-18T06:49:56;38.28;;;12.95;;
27863;SDS011;15980;51.092;13.916;2022-12-18T06:55:01;46.47;;;16.08;;
27863;SDS011;15980;51.092;13.916;2022-12-18T07:00:07;35.03;;;11.93;;
27863;SDS011;15980;51.092;13.916;2022-12-18T07:05:15;36.75;;;12.23;;
27863;SDS011;15980;51.092;13.916;2022-12-18T07:10:20;29.42;;;10.00;;
27863;SDS011;15980;51.092;13.916;2022-12-18T07:15:25;38.47;;;10.35;;
27863;SDS011;15980;51.092;13.916;2022-12-18T07:20:33;34.33;;;10.98;;
27863;SDS011;15980;51.092;13.916;2022-12-18T07:25:38;35.15;;;10.38;;
27863;SDS011;15980;51.092;13.916;2022-12-18T07:30:43;32.28;;;9.65;;
27863;SDS011;15980;51.092;13.916;2022-12-18T07:35:51;28.02;;;8.70;;
27863;SDS011;15980;51.092;13.916;2022-12-18T07:40:59;24.83;;;8.57;;
27863;SDS011;15980;51.092;13.916;2022-12-18T07:46:05;27.98;;;9.65;;
27863;SDS011;15980;51.092;13.916;2022-12-18T07:51:13;30.70;;;9.73;;
27863;SDS011;15980;51.092;13.916;2022-12-18T07:56:18;34.97;;;11.13;;
27863;SDS011;15980;51.092;13.916;2022-12-18T08:01:28;27.75;;;8.38;;
27863;SDS011;15980;51.092;13.916;2022-12-18T08:06:35;34.95;;;12.75;;
27863;SDS011;15980;51.092;13.916;2022-12-18T08:11:43;39.97;;;13.53;;
27863;SDS011;15980;51.092;13.916;2022-12-18T08:16:48;38.85;;;12.85;;
27863;SDS011;15980;51.092;13.916;2022-12-18T08:21:55;39.83;;;14.05;;
27863;SDS011;15980;51.092;13.916;2022-12-18T08:27:00;38.45;;;13.05;;
27863;SDS011;15980;51.092;13.916;2022-12-18T08:32:25;43.33;;;14.65;;
27863;SDS011;15980;51.092;13.916;2022-12-18T08:37:34;42.28;;;13.40;;
27863;SDS011;15980;51.092;13.916;2022-12-18T08:42:39;58.88;;;18.20;;
27863;SDS011;15980;51.092;13.916;2022-12-18T08:47:56;46.30;;;17.00;;
27863;SDS011;15980;51.092;13.916;2022-12-18T08:53:04;69.47;;;20.75;;
27863;SDS011;15980;51.092;13.916;2022-12-18T08:58:09;50.03;;;17.20;;
27863;SDS011;15980;51.092;13.916;2022-12-18T09:03:14;60.25;;;20.08;;
27863;SDS011;15980;51.092;13.916;2022-12-18T09:08:26;66.73;;;19.97;;
27863;SDS011;15980;51.092;13.916;2022-12-18T09:13:32;55.80;;;18.00;;
27863;SDS011;15980;51.092;13.916;2022-12-18T09:18:37;58.70;;;18.95;;
27863;SDS011;15980;51.092;13.916;2022-12-18T09:23:48;53.53;;;17.27;;
27863;SDS011;15980;51.092;13.916;2022-12-18T09:28:53;60.65;;;18.95;;
27863;SDS011;15980;51.092;13.916;2022-12-18T09:34:16;60.08;;;18.40;;
27863;SDS011;15980;51.092;13.916;2022-12-18T09:39:25;45.40;;;15.30;;
27863;SDS011;15980;51.092;13.916;2022-12-18T09:44:30;55.47;;;18.42;;
27863;SDS011;15980;51.092;13.916;2022-12-18T09:49:45;51.17;;;18.25;;
27863;SDS011;15980;51.092;13.916;2022-12-18T09:54:55;51.97;;;17.38;;
27863;SDS011;15980;51.092;13.916;2022-12-18T10:00:04;53.97;;;16.95;;
27863;SDS011;15980;51.092;13.916;2022-12-18T10:05:20;53.35;;;16.33;;
27863;SDS011;15980;51.092;13.916;2022-12-18T10:10:38;52.67;;;18.10;;
27863;SDS011;15980;51.092;13.916;2022-12-18T10:15:52;60.03;;;17.27;;
27863;SDS011;15980;51.092;13.916;2022-12-18T10:21:07;58.05;;;17.38;;
27863;SDS011;15980;51.092;13.916;2022-12-18T10:26:19;53.47;;;17.33;;
27863;SDS011;15980;51.092;13.916;2022-12-18T10:31:24;52.85;;;18.25;;
27863;SDS011;15980;51.092;13.916;2022-12-18T10:36:29;51.15;;;17.48;;
27863;SDS011;15980;51.092;13.916;2022-12-18T10:41:37;57.45;;;16.80;;
27863;SDS011;15980;51.092;13.916;2022-12-18T10:46:42;59.67;;;17.02;;
27863;SDS011;15980;51.092;13.916;2022-12-18T10:51:48;57.92;;;18.75;;
27863;SDS011;15980;51.092;13.916;2022-12-18T10:56:55;52.33;;;16.90;;
27863;SDS011;15980;51.092;13.916;2022-12-18T11:02:25;55.30;;;16.77;;
27863;SDS011;15980;51.092;13.916;2022-12-18T11:07:46;50.22;;;17.70;;
27863;SDS011;15980;51.092;13.916;2022-12-18T11:12:58;54.65;;;16.63;;
27863;SDS011;15980;51.092;13.916;2022-12-18T11:18:20;48.70;;;15.85;;
27863;SDS011;15980;51.092;13.916;2022-12-18T11:23:29;37.88;;;12.38;;
27863;SDS011;15980;51.092;13.916;2022-12-18T11:28:38;52.22;;;16.98;;
27863;SDS011;15980;51.092;13.916;2022-12-18T11:33:46;62.80;;;19.10;;
27863;SDS011;15980;51.092;13.916;2022-12-18T11:39:20;48.92;;;16.88;;
27863;SDS011;15980;51.092;13.916;2022-12-18T11:49:41;48.50;;;16.30;;
27863;SDS011;15980;51.092;13.916;2022-12-18T11:54:46;52.85;;;15.05;;
27863;SDS011;15980;51.092;13.916;2022-12-18T11:59:59;47.60;;;15.73;;
27863;SDS011;15980;51.092;13.916;2022-12-18T12:10:41;41.13;;;13.82;;
27863;SDS011;15980;51.092;13.916;2022-12-18T12:16:02;39.72;;;15.02;;
27863;SDS011;15980;51.092;13.916;2022-12-18T12:21:16;39.58;;;12.75;;
27863;SDS011;15980;51.092;13.916;2022-12-18T12:26:32;42.35;;;14.18;;
27863;SDS011;15980;51.092;13.916;2022-12-18T12:31:48;38.25;;;14.02;;
27863;SDS011;15980;51.092;13.916;2022-12-18T12:42:18;33.75;;;12.52;;
27863;SDS011;15980;51.092;13.916;2022-12-18T12:47:41;33.70;;;12.65;;
27863;SDS011;15980;51.092;13.916;2022-12-18T12:52:50;28.02;;;9.57;;
27863;SDS011;15980;51.092;13.916;2022-12-18T12:57:59;37.85;;;12.65;;
27863;SDS011;15980;51.092;13.916;2022-12-18T13:03:28;47.55;;;14.30;;
27863;SDS011;15980;51.092;13.916;2022-12-18T13:08:52;44.13;;;14.85;;
27863;SDS011;15980;51.092;13.916;2022-12-18T13:13:59;42.05;;;14.95;;
27863;SDS011;15980;51.092;13.916;2022-12-18T13:19:18;49.00;;;16.15;;
27863;SDS011;15980;51.092;13.916;2022-12-18T13:24:30;47.95;;;17.98;;
27863;SDS011;15980;51.092;13.916;2022-12-18T13:29:45;46.90;;;16.45;;
27863;SDS011;15980;51.092;13.916;2022-12-18T13:46:16;48.53;;;17.08;;
27863;SDS011;15980;51.092;13.916;2022-12-18T13:51:32;39.13;;;13.55;;
27863;SDS011;15980;51.092;13.916;2022-12-18T13:56:43;45.40;;;15.38;;
27863;SDS011;15980;51.092;13.916;2022-12-18T14:01:50;47.75;;;14.02;;
27863;SDS011;15980;51.092;13.916;2022-12-18T14:06:58;46.67;;;15.93;;
27863;SDS011;15980;51.092;13.916;2022-12-18T14:12:16;35.00;;;13.25;;
27863;SDS011;15980;51.092;13.916;2022-12-18T14:17:36;44.55;;;19.13;;
27863;SDS011;15980;51.092;13.916;2022-12-18T14:22:42;63.08;;;22.40;;
27863;SDS011;15980;51.092;13.916;2022-12-18T14:27:51;47.22;;;16.85;;
27863;SDS011;15980;51.092;13.916;2022-12-18T14:33:04;42.08;;;14.40;;
27863;SDS011;15980;51.092;13.916;2022-12-18T14:38:11;75.40;;;19.02;;
27863;SDS011;15980;51.092;13.916;2022-12-18T14:43:28;52.40;;;19.10;;
27863;SDS011;15980;51.092;13.916;2022-12-18T14:48:36;45.83;;;17.73;;
27863;SDS011;15980;51.092;13.916;2022-12-18T14:53:43;47.10;;;14.15;;
27863;SDS011;15980;51.092;13.916;2022-12-18T14:58:58;53.67;;;17.45;;
27863;SDS011;15980;51.092;13.916;2022-12-18T15:04:05;51.83;;;16.52;;
27863;SDS011;15980;51.092;13.916;2022-12-18T15:09:29;49.20;;;16.70;;
27863;SDS011;15980;51.092;13.916;2022-12-18T15:14:38;47.35;;;14.32;;
27863;SDS011;15980;51.092;13.916;2022-12-18T15:19:44;49.13;;;17.60;;
27863;SDS011;15980;51.092;13.916;2022-12-18T15:24:51;57.30;;;17.73;;
27863;SDS011;15980;51.092;13.916;2022-12-18T15:30:10;45.60;;;16.48;;
27863;SDS011;15980;51.092;13.916;2022-12-18T15:35:22;37.58;;;14.93;;
27863;SDS011;15980;51.092;13.916;2022-12-18T15:40:29;48.58;;;16.35;;
27863;SDS011;15980;51.092;13.916;2022-12-18T15:45:36;50.50;;;15.73;;
27863;SDS011;15980;51.092;13.916;2022-12-18T15:50:41;47.88;;;16.60;;
27863;SDS011;15980;51.092;13.916;2022-12-18T15:55:46;47.03;;;15.45;;
27863;SDS011;15980;51.092;13.916;2022-12-18T16:01:06;48.58;;;16.10;;
27863;SDS011;15980;51.092;13.916;2022-12-18T16:06:13;51.75;;;17.13;;
27863;SDS011;15980;51.092;13.916;2022-12-18T16:11:20;57.25;;;17.95;;
27863;SDS011;15980;51.092;13.916;2022-12-18T16:16:42;62.45;;;16.73;;
27863;SDS011;15980;51.092;13.916;2022-12-18T16:21:47;45.45;;;16.00;;
27863;SDS011;15980;51.092;13.916;2022-12-18T16:26:53;52.20;;;15.07;;
27863;SDS011;15980;51.092;13.916;2022-12-18T16:32:01;45.30;;;15.90;;
27863;SDS011;15980;51.092;13.916;2022-12-18T16:37:07;56.88;;;20.10;;
27863;SDS011;15980;51.092;13.916;2022-12-18T16:42:14;51.42;;;17.40;;
27863;SDS011;15980;51.092;13.916;2022-12-18T16:47:23;52.65;;;17.30;;
27863;SDS011;15980;51.092;13.916;2022-12-18T16:52:28;52.22;;;17.00;;
27863;SDS011;15980;51.092;13.916;2022-12-18T16:57:33;61.63;;;18.27;;
27863;SDS011;15980;51.092;13.916;2022-12-18T17:02:40;60.28;;;18.00;;
27863;SDS011;15980;51.092;13.916;2022-12-18T17:07:45;58.60;;;19.52;;
27863;SDS011;15980;51.092;13.916;2022-12-18T17:12:50;55.55;;;16.90;;
27863;SDS011;15980;51.092;13.916;2022-12-18T17:17:58;60.38;;;18.67;;
27863;SDS011;15980;51.092;13.916;2022-12-18T17:23:03;61.60;;;19.20;;
27863;SDS011;15980;51.092;13.916;2022-12-18T17:28:08;60.22;;;18.88;;
27863;SDS011;15980;51.092;13.916;2022-12-18T17:33:16;69.55;;;19.65;;
27863;SDS011;15980;51.092;13.916;2022-12-18T17:38:21;63.80;;;20.20;;
27863;SDS011;15980;51.092;13.916;2022-12-18T17:43:26;56.10;;;17.10;;
27863;SDS011;15980;51.092;13.916;2022-12-18T17:48:33;56.10;;;16.55;;
27863;SDS011;15980;51.092;13.916;2022-12-18T17:53:38;59.78;;;17.08;;
27863;SDS011;15980;51.092;13.916;2022-12-18T17:58:43;48.75;;;14.85;;
27863;SDS011;15980;51.092;13.916;2022-12-18T18:03:51;44.22;;;15.32;;
27863;SDS011;15980;51.092;13.916;2022-12-18T18:08:57;50.17;;;15.40;;
27863;SDS011;15980;51.092;13.916;2022-12-18T18:14:02;51.30;;;16.27;;
27863;SDS011;15980;51.092;13.916;2022-12-18T18:19:11;34.83;;;11.32;;
27863;SDS011;15980;51.092;13.916;2022-12-18T18:24:19;56.88;;;16.13;;
27863;SDS011;15980;51.092;13.916;2022-12-18T18:29:26;56.47;;;19.42;;
27863;SDS011;15980;51.092;13.916;2022-12-18T18:34:36;52.20;;;17.00;;
27863;SDS011;15980;51.092;13.916;2022-12-18T18:39:40;48.92;;;15.32;;
27863;SDS011;15980;51.092;13.916;2022-12-18T18:44:45;52.25;;;16.38;;
27863;SDS011;15980;51.092;13.916;2022-12-18T18:49:53;54.95;;;14.93;;
27863;SDS011;15980;51.092;13.916;2022-12-18T18:54:58;56.85;;;16.98;;
27863;SDS011;15980;51.092;13.916;2022-12-18T19:00:13;49.08;;;16.20;;
27863;SDS011;15980;51.092;13.916;2022-12-18T19:05:22;54.75;;;17.13;;
27863;SDS011;15980;51.092;13.916;2022-12-18T19:10:26;53.80;;;16.35;;
27863;SDS011;15980;51.092;13.916;2022-12-18T19:15:32;57.20;;;18.10;;
27863;SDS011;15980;51.092;13.916;2022-12-18T19:20:40;45.35;;;15.60;;
27863;SDS011;15980;51.092;13.916;2022-12-18T19:25:45;52.78;;;15.60;;
27863;SDS011;15980;51.092;13.916;2022-12-18T19:30:51;50.05;;;15.82;;
27863;SDS011;15980;51.092;13.916;2022-12-18T19:36:00;56.58;;;16.98;;
27863;SDS011;15980;51.092;13.916;2022-12-18T19:41:12;47.45;;;15.52;;
27863;SDS011;15980;51.092;13.916;2022-12-18T19:46:18;52.60;;;16.48;;
27863;SDS011;15980;51.092;13.916;2022-12-18T19:51:28;50.83;;;15.85;;
27863;SDS011;15980;51.092;13.916;2022-12-18T19:56:35;35.43;;;12.50;;
27863;SDS011;15980;51.092;13.916;2022-12-18T20:01:41;44.03;;;16.05;;
27863;SDS011;15980;51.092;13.916;2022-12-18T20:06:49;49.95;;;14.77;;
27863;SDS011;15980;51.092;13.916;2022-12-18T20:11:55;39.95;;;14.57;;
27863;SDS011;15980;51.092;13.916;2022-12-18T20:17:00;51.95;;;14.48;;
27863;SDS011;15980;51.092;13.916;2022-12-18T20:22:08;39.55;;;14.15;;
27863;SDS011;15980;51.092;13.916;2022-12-18T20:27:14;46.30;;;13.48;;
27863;SDS011;15980;51.092;13.916;2022-12-18T20:32:19;45.05;;;14.50;;
27863;SDS011;15980;51.092;13.916;2022-12-18T20:37:28;43.00;;;13.07;;
27863;SDS011;15980;51.092;13.916;2022-12-18T20:42:35;41.83;;;14.60;;
27863;SDS011;15980;51.092;13.916;2022-12-18T20:47:40;35.15;;;12.77;;
27863;SDS011;15980;51.092;13.916;2022-12-18T20:52:48;58.40;;;16.42;;
27863;SDS011;15980;51.092;13.916;2022-12-18T20:57:53;37.38;;;12.60;;
27863;SDS011;15980;51.092;13.916;2022-12-18T21:02:58;42.28;;;13.80;;
27863;SDS011;15980;51.092;13.916;2022-12-18T21:08:06;45.08;;;14.27;;
27863;SDS011;15980;51.092;13.916;2022-12-18T21:13:12;48.38;;;14.82;;
27863;SDS011;15980;51.092;13.916;2022-12-18T21:18:17;55.03;;;15.68;;
27863;SDS011;15980;51.092;13.916;2022-12-18T21:23:24;44.65;;;14.88;;
27863;SDS011;15980;51.092;13.916;2022-12-18T21:28:29;51.05;;;14.40;;
27863;SDS011;15980;51.092;13.916;2022-12-18T21:33:34;47.05;;;14.68;;
27863;SDS011;15980;51.092;13.916;2022-12-18T21:38:42;43.50;;;14.73;;
27863;SDS011;15980;51.092;13.916;2022-12-18T21:43:47;51.33;;;15.68;;
27863;SDS011;15980;51.092;13.916;2022-12-18T21:49:04;58.97;;;16.92;;
27863;SDS011;15980;51.092;13.916;2022-12-18T21:54:13;49.90;;;15.95;;
27863;SDS011;15980;51.092;13.916;2022-12-18T21:59:18;53.13;;;16.55;;
27863;SDS011;15980;51.092;13.916;2022-12-18T22:04:25;46.35;;;15.10;;
27863;SDS011;15980;51.092;13.916;2022-12-18T22:09:33;56.20;;;16.70;;
27863;SDS011;15980;51.092;13.916;2022-12-18T22:14:38;50.80;;;15.23;;
27863;SDS011;15980;51.092;13.916;2022-12-18T22:19:43;42.15;;;14.57;;
27863;SDS011;15980;51.092;13.916;2022-12-18T22:24:50;45.30;;;15.35;;
27863;SDS011;15980;51.092;13.916;2022-12-18T22:29:55;42.63;;;15.13;;
27863;SDS011;15980;51.092;13.916;2022-12-18T22:35:09;43.95;;;14.63;;
27863;SDS011;15980;51.092;13.916;2022-12-18T22:40:19;40.45;;;14.65;;
27863;SDS011;15980;51.092;13.916;2022-12-18T22:45:25;46.38;;;15.60;;
27863;SDS011;15980;51.092;13.916;2022-12-18T22:50:30;48.42;;;16.13;;
27863;SDS011;15980;51.092;13.916;2022-12-18T22:55:38;52.55;;;16.60;;
27863;SDS011;15980;51.092;13.916;2022-12-18T23:00:43;51.25;;;17.23;;
27863;SDS011;15980;51.092;13.916;2022-12-18T23:05:48;48.50;;;16.75;;
27863;SDS011;15980;51.092;13.916;2022-12-18T23:10:55;50.60;;;17.60;;
27863;SDS011;15980;51.092;13.916;2022-12-18T23:16:03;56.00;;;19.23;;
27863;SDS011;15980;51.092;13.916;2022-12-18T23:21:09;48.50;;;16.60;;
27863;SDS011;15980;51.092;13.916;2022-12-18T23:26:19;55.20;;;17.83;;
27863;SDS011;15980;51.092;13.916;2022-12-18T23:31:26;53.63;;;17.25;;
27863;SDS011;15980;51.092;13.916;2022-12-18T23:36:32;55.95;;;18.48;;
27863;SDS011;15980;51.092;13.916;2022-12-18T23:41:40;58.10;;;19.63;;
27863;SDS011;15980;51.092;13.916;2022-12-18T23:46:45;57.90;;;19.45;;
27863;SDS011;15980;51.092;13.916;2022-12-18T23:51:49;49.05;;;17.73;;
27863;SDS011;15980;51.092;13.916;2022-12-18T23:56:59;56.42;;;18.85;;
